Arkoma, Oklahoma
Current Conditions -  °F | °C
As of 1:53 AM on Thursday 23 Oct 2014 (Local Time) from KFSM Reporting Station
Clear Clear  
Wind Chill: 57°   Ceiling: Unl
Heat Index: 57°   Visibility: 10mi
Dew Point: 52°   Wind: 7mph
Humidity: 83%   Direction: 80°E
Pressure: 30.15"   Gusts: NA
Location:  35.35°N, 94.43°W
Report Text: KFSM 230653Z AUTO 08006KT 10SM CLR 14/11 A3015 RMK AO2 SLP208 T01390111
Loading
Personal Weather Stations






























Interactive Weather Map
Tropical Storm Tracking
New forecast layout! Learn more

10-Day Weather Forecast

Advertisements
Track Severe Weather on mobile